7L203 UBBB-EHAM
Flight info
| Callsign | 7L203 |
|---|---|
| Flight time | 4h 57m |
| Altitude | 34000 |
| Route | AGDAM DCT MATAL M11 REBLO UM11 CRM UL746 ODERO L621 REVDA DCT DIRAL DCT PELUR DCT SIB DCT BUDOP/N0497F360 DCT BKS DCT DODAR DCT BODZA DCT BEGLA DCT DEXIT DCT MASEK L604 BIGGE T281 HMM/N0490F340 T281 NORKU |
| Aircraft | B748/H-SDE3FGHIM1M2RWXY/LB1 |
Departure
| Time | 2026-04-30 13:23 |
|---|---|
| Airport | Heydar Aliyev International Airport (UBBB) |
Arrival
| Time | 2026-04-30 18:20 |
|---|---|
| Airport | Amsterdam Airport Schiphol (EHAM) |
| Time | Latitude | Longitude | Altitude | Speed | Heading |
|---|---|---|---|---|---|
| 2026-04-30 13:03 | 40.45985 | 50.05853 | -4 ft | 0 kts | 269° |
| 2026-04-30 13:06 | 40.45985 | 50.05854 | -4 ft | 2 kts | 269° |
| 2026-04-30 13:06 | 40.45985 | 50.05888 | -4 ft | 4 kts | 271° |
| 2026-04-30 13:07 | 40.45981 | 50.05940 | -4 ft | 6 kts | 283° |
| 2026-04-30 13:07 | 40.45957 | 50.06003 | -5 ft | 7 kts | 320° |
| 2026-04-30 13:07 | 40.45929 | 50.05971 | -5 ft | 5 kts | 71° |
| 2026-04-30 13:07 | 40.45908 | 50.05929 | -5 ft | 5 kts | 39° |
| 2026-04-30 13:08 | 40.45886 | 50.05907 | -5 ft | 1 kts | 36° |
| 2026-04-30 13:08 | 40.45885 | 50.05907 | -5 ft | 0 kts | 36° |
| 2026-04-30 13:10 | 40.45889 | 50.05910 | -5 ft | 1 kts | 36° |
| 2026-04-30 13:10 | 40.45899 | 50.05920 | -5 ft | 2 kts | 36° |
| 2026-04-30 13:11 | 40.45918 | 50.05937 | -5 ft | 4 kts | 35° |
| 2026-04-30 13:11 | 40.45949 | 50.05958 | -5 ft | 6 kts | 15° |
| 2026-04-30 13:11 | 40.45999 | 50.05964 | -4 ft | 8 kts | 0° |
| 2026-04-30 13:11 | 40.46063 | 50.05962 | -4 ft | 10 kts | 359° |
| 2026-04-30 13:12 | 40.46143 | 50.05960 | -3 ft | 12 kts | 359° |
| 2026-04-30 13:12 | 40.46234 | 50.05959 | -3 ft | 14 kts | 359° |
| 2026-04-30 13:12 | 40.46337 | 50.05957 | -1 ft | 15 kts | 0° |
| 2026-04-30 13:13 | 40.46511 | 50.05941 | 2 ft | 9 kts | 315° |
| 2026-04-30 13:13 | 40.46524 | 50.05873 | 2 ft | 10 kts | 268° |
| 2026-04-30 13:13 | 40.46518 | 50.05638 | 0 ft | 14 kts | 279° |
| 2026-04-30 13:14 | 40.46584 | 50.05548 | -1 ft | 14 kts | 326° |
| 2026-04-30 13:14 | 40.46676 | 50.05473 | -2 ft | 16 kts | 329° |
| 2026-04-30 13:14 | 40.46899 | 50.05380 | -6 ft | 15 kts | 336° |
| 2026-04-30 13:15 | 40.46932 | 50.05254 | -7 ft | 16 kts | 269° |
| 2026-04-30 13:15 | 40.46923 | 50.04953 | -6 ft | 15 kts | 269° |
| 2026-04-30 13:15 | 40.46920 | 50.04817 | -5 ft | 14 kts | 268° |
| 2026-04-30 13:16 | 40.46918 | 50.04688 | -3 ft | 13 kts | 269° |
| 2026-04-30 13:16 | 40.46914 | 50.04559 | -4 ft | 14 kts | 268° |
| 2026-04-30 13:16 | 40.46910 | 50.04415 | -6 ft | 16 kts | 266° |
| 2026-04-30 13:17 | 40.46856 | 50.04094 | -10 ft | 15 kts | 253° |
| 2026-04-30 13:17 | 40.46779 | 50.04052 | -9 ft | 12 kts | 163° |
| 2026-04-30 13:17 | 40.46611 | 50.04119 | -8 ft | 12 kts | 162° |
| 2026-04-30 13:18 | 40.46526 | 50.04157 | -8 ft | 13 kts | 158° |
| 2026-04-30 13:18 | 40.46341 | 50.04259 | -10 ft | 15 kts | 158° |
| 2026-04-30 13:18 | 40.46234 | 50.04313 | -12 ft | 17 kts | 160° |
| 2026-04-30 13:19 | 40.46115 | 50.04369 | -14 ft | 18 kts | 160° |
| 2026-04-30 13:19 | 40.45990 | 50.04428 | -13 ft | 19 kts | 160° |
| 2026-04-30 13:19 | 40.45866 | 50.04488 | -12 ft | 19 kts | 159° |
| 2026-04-30 13:19 | 40.45747 | 50.04544 | -14 ft | 13 kts | 171° |
| 2026-04-30 13:20 | 40.45683 | 50.04480 | -14 ft | 13 kts | 247° |
| 2026-04-30 13:20 | 40.45651 | 50.04359 | -15 ft | 14 kts | 253° |
| 2026-04-30 13:20 | 40.45627 | 50.04232 | -14 ft | 14 kts | 260° |
| 2026-04-30 13:20 | 40.45659 | 50.04127 | -14 ft | 13 kts | 332° |
| 2026-04-30 13:21 | 40.45694 | 50.04111 | -14 ft | 0 kts | 346° |
| 2026-04-30 13:22 | 40.46094 | 50.03985 | -13 ft | 79 kts | 346° |
| 2026-04-30 13:22 | 40.46794 | 50.03766 | -9 ft | 126 kts | 346° |
| 2026-04-30 13:22 | 40.48941 | 50.03090 | 226 ft | 171 kts | 347° |
| 2026-04-30 13:23 | 40.50045 | 50.02759 | 582 ft | 158 kts | 347° |
| 2026-04-30 13:23 | 40.52266 | 50.02076 | 1039 ft | 167 kts | 347° |
| 2026-04-30 13:24 | 40.54673 | 50.01317 | 1324 ft | 187 kts | 346° |
| 2026-04-30 13:24 | 40.57262 | 50.00494 | 1687 ft | 202 kts | 347° |
| 2026-04-30 13:25 | 40.60279 | 50.00652 | 1750 ft | 242 kts | 30° |
| 2026-04-30 13:25 | 40.61979 | 50.04479 | 2650 ft | 262 kts | 89° |
| 2026-04-30 13:26 | 40.60938 | 50.11678 | 4328 ft | 272 kts | 99° |
| 2026-04-30 13:26 | 40.60138 | 50.16583 | 5452 ft | 277 kts | 98° |
| 2026-04-30 13:27 | 40.59608 | 50.21608 | 6530 ft | 283 kts | 96° |
| 2026-04-30 13:28 | 40.58789 | 50.29380 | 8051 ft | 296 kts | 99° |
| 2026-04-30 13:28 | 40.57112 | 50.34291 | 9187 ft | 299 kts | 115° |
| 2026-04-30 13:28 | 40.56187 | 50.36737 | 9730 ft | 301 kts | 114° |
| 2026-04-30 13:29 | 40.54355 | 50.41733 | 10583 ft | 314 kts | 119° |
| 2026-04-30 13:29 | 40.50903 | 50.45561 | 10859 ft | 347 kts | 163° |
| 2026-04-30 13:30 | 40.43274 | 50.45480 | 11265 ft | 394 kts | 184° |
| 2026-04-30 13:31 | 40.37664 | 50.45025 | 12083 ft | 411 kts | 185° |
| 2026-04-30 13:31 | 40.29415 | 50.42661 | 13749 ft | 411 kts | 217° |
| 2026-04-30 13:32 | 40.26085 | 50.36783 | 14864 ft | 408 kts | 253° |
| 2026-04-30 13:32 | 40.25634 | 50.29480 | 15929 ft | 409 kts | 270° |
| 2026-04-30 13:33 | 40.25358 | 50.22024 | 16964 ft | 414 kts | 267° |
| 2026-04-30 13:33 | 40.25163 | 50.14504 | 18030 ft | 417 kts | 269° |
| 2026-04-30 13:34 | 40.25101 | 50.10681 | 18552 ft | 419 kts | 271° |
| 2026-04-30 13:34 | 40.25458 | 49.99212 | 19945 ft | 426 kts | 273° |
| 2026-04-30 13:35 | 40.25583 | 49.95341 | 20416 ft | 428 kts | 273° |
| 2026-04-30 13:35 | 40.25828 | 49.87499 | 21264 ft | 435 kts | 273° |
| 2026-04-30 13:36 | 40.26061 | 49.79625 | 22184 ft | 437 kts | 273° |
| 2026-04-30 13:36 | 40.26176 | 49.75635 | 22569 ft | 441 kts | 273° |
| 2026-04-30 13:36 | 40.26402 | 49.67626 | 23359 ft | 445 kts | 273° |
| 2026-04-30 13:37 | 40.26512 | 49.63602 | 23752 ft | 448 kts | 273° |
| 2026-04-30 13:37 | 40.26732 | 49.55398 | 24514 ft | 452 kts | 273° |
| 2026-04-30 13:38 | 40.26945 | 49.47182 | 25253 ft | 457 kts | 273° |
| 2026-04-30 13:38 | 40.27041 | 49.43046 | 25631 ft | 458 kts | 272° |
| 2026-04-30 13:38 | 40.26875 | 49.34705 | 26367 ft | 462 kts | 269° |
| 2026-04-30 13:39 | 40.26574 | 49.26253 | 27042 ft | 467 kts | 268° |
| 2026-04-30 13:39 | 40.26889 | 49.17836 | 27693 ft | 467 kts | 282° |
| 2026-04-30 13:40 | 40.27568 | 49.13678 | 27951 ft | 470 kts | 283° |
| 2026-04-30 13:40 | 40.28317 | 49.09522 | 28249 ft | 473 kts | 283° |
| 2026-04-30 13:40 | 40.29029 | 49.05280 | 28564 ft | 475 kts | 282° |
| 2026-04-30 13:40 | 40.29676 | 49.01067 | 28921 ft | 476 kts | 282° |
| 2026-04-30 13:41 | 40.30307 | 48.96859 | 29386 ft | 474 kts | 281° |
| 2026-04-30 13:41 | 40.30934 | 48.92656 | 29949 ft | 470 kts | 281° |
| 2026-04-30 13:41 | 40.31561 | 48.88447 | 30508 ft | 467 kts | 282° |
| 2026-04-30 13:41 | 40.32180 | 48.84298 | 30788 ft | 468 kts | 281° |
| 2026-04-30 13:42 | 40.32800 | 48.80123 | 31130 ft | 467 kts | 281° |
| 2026-04-30 13:42 | 40.33417 | 48.75961 | 31531 ft | 465 kts | 281° |
| 2026-04-30 13:42 | 40.34631 | 48.67742 | 32204 ft | 463 kts | 281° |
| 2026-04-30 13:43 | 40.35246 | 48.63577 | 32508 ft | 463 kts | 281° |
| 2026-04-30 13:43 | 40.35852 | 48.59454 | 32840 ft | 462 kts | 281° |
| 2026-04-30 13:43 | 40.36448 | 48.55381 | 33192 ft | 460 kts | 281° |
| 2026-04-30 13:43 | 40.37051 | 48.51262 | 33455 ft | 460 kts | 281° |
| 2026-04-30 13:44 | 40.37645 | 48.47188 | 33755 ft | 458 kts | 281° |
| 2026-04-30 13:44 | 40.38244 | 48.43065 | 34060 ft | 457 kts | 281° |
| 2026-04-30 13:44 | 40.39427 | 48.34906 | 34113 ft | 453 kts | 280° |
| 2026-04-30 13:45 | 40.41179 | 48.22735 | 34128 ft | 455 kts | 280° |
| 2026-04-30 13:46 | 40.42344 | 48.14592 | 34110 ft | 453 kts | 281° |
| 2026-04-30 13:46 | 40.43498 | 48.06483 | 34120 ft | 456 kts | 281° |
| 2026-04-30 13:47 | 40.44652 | 47.98334 | 34122 ft | 457 kts | 281° |
| 2026-04-30 13:47 | 40.45800 | 47.90182 | 34117 ft | 455 kts | 281° |
| 2026-04-30 13:48 | 40.46944 | 47.82019 | 34114 ft | 456 kts | 281° |
| 2026-04-30 13:48 | 40.48079 | 47.73871 | 34111 ft | 455 kts | 281° |
| 2026-04-30 13:49 | 40.49209 | 47.65723 | 34106 ft | 455 kts | 281° |
| 2026-04-30 13:49 | 40.50338 | 47.57533 | 34096 ft | 455 kts | 281° |
| 2026-04-30 13:50 | 40.51460 | 47.49342 | 34100 ft | 457 kts | 281° |
| 2026-04-30 13:50 | 40.53135 | 47.37051 | 34087 ft | 458 kts | 281° |
| 2026-04-30 13:51 | 40.54238 | 47.28891 | 34097 ft | 458 kts | 280° |
| 2026-04-30 13:51 | 40.55342 | 47.20666 | 34087 ft | 458 kts | 280° |
| 2026-04-30 13:52 | 40.56437 | 47.12480 | 34088 ft | 458 kts | 280° |
| 2026-04-30 13:52 | 40.57531 | 47.04258 | 34081 ft | 459 kts | 280° |
| 2026-04-30 13:53 | 40.58624 | 46.95994 | 34086 ft | 458 kts | 280° |
| 2026-04-30 13:53 | 40.59706 | 46.87760 | 34082 ft | 458 kts | 280° |
| 2026-04-30 13:54 | 40.60790 | 46.79473 | 34091 ft | 458 kts | 280° |
| 2026-04-30 13:54 | 40.61858 | 46.71236 | 34089 ft | 457 kts | 280° |
| 2026-04-30 13:55 | 40.62921 | 46.63020 | 34103 ft | 459 kts | 280° |
| 2026-04-30 13:55 | 40.63979 | 46.54777 | 34109 ft | 457 kts | 280° |
| 2026-04-30 13:56 | 40.65025 | 46.46577 | 34102 ft | 456 kts | 280° |
| 2026-04-30 13:56 | 40.66069 | 46.38358 | 34088 ft | 455 kts | 280° |
| 2026-04-30 13:57 | 40.67108 | 46.30124 | 34092 ft | 456 kts | 279° |
| 2026-04-30 13:57 | 40.68139 | 46.21904 | 34103 ft | 457 kts | 279° |
| 2026-04-30 13:58 | 40.69674 | 46.09578 | 34100 ft | 454 kts | 279° |
| 2026-04-30 13:59 | 40.70681 | 46.01427 | 34116 ft | 455 kts | 279° |
| 2026-04-30 13:59 | 40.71690 | 45.93205 | 34119 ft | 453 kts | 279° |
| 2026-04-30 14:00 | 40.72693 | 45.84985 | 34117 ft | 453 kts | 279° |
| 2026-04-30 14:00 | 40.74175 | 45.72746 | 34141 ft | 453 kts | 279° |
| 2026-04-30 14:01 | 40.75160 | 45.64552 | 34130 ft | 453 kts | 279° |
| 2026-04-30 14:01 | 40.76138 | 45.56357 | 34128 ft | 453 kts | 279° |
| 2026-04-30 14:02 | 40.76982 | 45.48211 | 34119 ft | 451 kts | 276° |
| 2026-04-30 14:02 | 40.77383 | 45.39942 | 34131 ft | 452 kts | 274° |
| 2026-04-30 14:03 | 40.77747 | 45.31634 | 34137 ft | 453 kts | 274° |
| 2026-04-30 14:03 | 40.78112 | 45.23378 | 34136 ft | 452 kts | 274° |
| 2026-04-30 14:04 | 40.78475 | 45.15151 | 34139 ft | 452 kts | 274° |
| 2026-04-30 14:04 | 40.78833 | 45.06905 | 34148 ft | 453 kts | 274° |
| 2026-04-30 14:05 | 40.79189 | 44.98592 | 34150 ft | 452 kts | 274° |
| 2026-04-30 14:05 | 40.79536 | 44.90348 | 34139 ft | 451 kts | 274° |
| 2026-04-30 14:06 | 40.80047 | 44.77991 | 34134 ft | 450 kts | 274° |
| 2026-04-30 14:07 | 40.80544 | 44.65663 | 34121 ft | 449 kts | 274° |
| 2026-04-30 14:08 | 40.81026 | 44.53348 | 34139 ft | 452 kts | 274° |
| 2026-04-30 14:08 | 40.81498 | 44.40968 | 34149 ft | 452 kts | 274° |
| 2026-04-30 14:09 | 40.81805 | 44.32762 | 34160 ft | 453 kts | 273° |
| 2026-04-30 14:10 | 40.82256 | 44.20336 | 34144 ft | 451 kts | 273° |
| 2026-04-30 14:10 | 40.82550 | 44.12077 | 34147 ft | 451 kts | 273° |
| 2026-04-30 14:11 | 40.82835 | 44.03869 | 34159 ft | 452 kts | 273° |
| 2026-04-30 14:11 | 40.83116 | 43.95614 | 34170 ft | 452 kts | 273° |
| 2026-04-30 14:12 | 40.83393 | 43.87312 | 34162 ft | 452 kts | 273° |
| 2026-04-30 14:12 | 40.83660 | 43.79089 | 34166 ft | 449 kts | 273° |
| 2026-04-30 14:13 | 40.83927 | 43.70849 | 34153 ft | 449 kts | 273° |
| 2026-04-30 14:13 | 40.84280 | 43.62646 | 34168 ft | 452 kts | 275° |
| 2026-04-30 14:14 | 40.84754 | 43.54436 | 34158 ft | 450 kts | 275° |
| 2026-04-30 14:14 | 40.85223 | 43.46207 | 34158 ft | 449 kts | 275° |
| 2026-04-30 14:15 | 40.85680 | 43.38026 | 34166 ft | 450 kts | 275° |
| 2026-04-30 14:15 | 40.86128 | 43.29800 | 34186 ft | 449 kts | 274° |
| 2026-04-30 14:16 | 40.86567 | 43.21611 | 34175 ft | 449 kts | 274° |
| 2026-04-30 14:16 | 40.87001 | 43.13416 | 34167 ft | 447 kts | 274° |
| 2026-04-30 14:17 | 40.87429 | 43.05175 | 34166 ft | 447 kts | 274° |
| 2026-04-30 14:17 | 40.87849 | 42.96960 | 34165 ft | 448 kts | 274° |
| 2026-04-30 14:18 | 40.88264 | 42.88741 | 34169 ft | 449 kts | 274° |
| 2026-04-30 14:18 | 40.88869 | 42.76491 | 34163 ft | 448 kts | 274° |
| 2026-04-30 14:19 | 40.89466 | 42.64161 | 34163 ft | 447 kts | 274° |
| 2026-04-30 14:20 | 40.89854 | 42.55983 | 34152 ft | 447 kts | 274° |
| 2026-04-30 14:20 | 40.90427 | 42.43673 | 34159 ft | 449 kts | 274° |
| 2026-04-30 14:21 | 40.90801 | 42.35486 | 34149 ft | 448 kts | 274° |
| 2026-04-30 14:22 | 40.91354 | 42.23132 | 34172 ft | 448 kts | 273° |
| 2026-04-30 14:22 | 40.91890 | 42.10858 | 34156 ft | 449 kts | 273° |
| 2026-04-30 14:23 | 40.92585 | 41.94477 | 34158 ft | 447 kts | 273° |
| 2026-04-30 14:24 | 40.93092 | 41.82209 | 34155 ft | 446 kts | 273° |
| 2026-04-30 14:25 | 40.93744 | 41.65862 | 34143 ft | 446 kts | 272° |
| 2026-04-30 14:26 | 40.94219 | 41.53569 | 34141 ft | 445 kts | 273° |
| 2026-04-30 14:27 | 40.94679 | 41.41363 | 34148 ft | 446 kts | 272° |
| 2026-04-30 14:27 | 40.94980 | 41.33155 | 34149 ft | 445 kts | 272° |
| 2026-04-30 14:28 | 40.95419 | 41.20959 | 34161 ft | 442 kts | 272° |
| 2026-04-30 14:28 | 40.95702 | 41.12839 | 34162 ft | 443 kts | 272° |
| 2026-04-30 14:29 | 40.96208 | 40.97924 | 34146 ft | 443 kts | 272° |
| 2026-04-30 14:31 | 40.96911 | 40.76196 | 34127 ft | 446 kts | 272° |
| 2026-04-30 14:31 | 40.97290 | 40.63952 | 34098 ft | 444 kts | 272° |
| 2026-04-30 14:32 | 40.97655 | 40.51771 | 34104 ft | 444 kts | 272° |
| 2026-04-30 14:33 | 40.97891 | 40.43621 | 34088 ft | 443 kts | 272° |
| 2026-04-30 14:33 | 40.98236 | 40.31284 | 34104 ft | 443 kts | 271° |
| 2026-04-30 14:34 | 40.98457 | 40.23117 | 34103 ft | 443 kts | 271° |
| 2026-04-30 14:34 | 40.98672 | 40.14949 | 34102 ft | 446 kts | 271° |
| 2026-04-30 14:35 | 40.98981 | 40.02702 | 34111 ft | 445 kts | 271° |
| 2026-04-30 14:36 | 40.99179 | 39.94579 | 34112 ft | 445 kts | 271° |
| 2026-04-30 14:36 | 40.99371 | 39.86429 | 34121 ft | 446 kts | 271° |
| 2026-04-30 14:37 | 40.99618 | 39.78222 | 34120 ft | 445 kts | 274° |
| 2026-04-30 14:37 | 41.00377 | 39.70125 | 34103 ft | 446 kts | 277° |
| 2026-04-30 14:38 | 41.01192 | 39.61991 | 34107 ft | 445 kts | 276° |
| 2026-04-30 14:38 | 41.01976 | 39.53916 | 34109 ft | 445 kts | 276° |
| 2026-04-30 14:39 | 41.02748 | 39.45810 | 34098 ft | 443 kts | 276° |
| 2026-04-30 14:39 | 41.03514 | 39.37668 | 34087 ft | 445 kts | 276° |
| 2026-04-30 14:40 | 41.04647 | 39.25481 | 34067 ft | 444 kts | 276° |
| 2026-04-30 14:40 | 41.05394 | 39.17351 | 34075 ft | 445 kts | 276° |
| 2026-04-30 14:41 | 41.06131 | 39.09273 | 34068 ft | 443 kts | 276° |
| 2026-04-30 14:41 | 41.06882 | 39.01186 | 34067 ft | 444 kts | 276° |
| 2026-04-30 14:42 | 41.07632 | 38.93047 | 34074 ft | 445 kts | 276° |
| 2026-04-30 14:42 | 41.08373 | 38.84930 | 34072 ft | 444 kts | 276° |
| 2026-04-30 14:43 | 41.09101 | 38.76855 | 34070 ft | 443 kts | 276° |
| 2026-04-30 14:43 | 41.09827 | 38.68707 | 34077 ft | 446 kts | 276° |
| 2026-04-30 14:44 | 41.10529 | 38.60597 | 34082 ft | 443 kts | 276° |
| 2026-04-30 14:44 | 41.11215 | 38.52499 | 34089 ft | 444 kts | 275° |
| 2026-04-30 14:45 | 41.11894 | 38.44385 | 34090 ft | 444 kts | 276° |
| 2026-04-30 14:45 | 41.12562 | 38.36316 | 34096 ft | 444 kts | 275° |
| 2026-04-30 14:46 | 41.13231 | 38.28167 | 34109 ft | 444 kts | 275° |
| 2026-04-30 14:46 | 41.13897 | 38.20031 | 34112 ft | 444 kts | 275° |
| 2026-04-30 14:47 | 41.14560 | 38.11922 | 34115 ft | 444 kts | 275° |
| 2026-04-30 14:47 | 41.15219 | 38.03765 | 34107 ft | 444 kts | 275° |
| 2026-04-30 14:48 | 41.15873 | 37.95634 | 34094 ft | 444 kts | 275° |
| 2026-04-30 14:48 | 41.16515 | 37.87513 | 34086 ft | 443 kts | 275° |
| 2026-04-30 14:49 | 41.17205 | 37.79385 | 34081 ft | 444 kts | 275° |
| 2026-04-30 14:49 | 41.17898 | 37.71291 | 34075 ft | 443 kts | 275° |
| 2026-04-30 14:50 | 41.18879 | 37.59097 | 34084 ft | 443 kts | 273° |
| 2026-04-30 14:51 | 41.19596 | 37.46920 | 34077 ft | 445 kts | 275° |
| 2026-04-30 14:52 | 41.20540 | 37.34745 | 34063 ft | 442 kts | 274° |
| 2026-04-30 14:52 | 41.21443 | 37.22509 | 34069 ft | 443 kts | 274° |
| 2026-04-30 14:53 | 41.22385 | 37.10355 | 34063 ft | 442 kts | 275° |
| 2026-04-30 14:54 | 41.23639 | 36.94087 | 34064 ft | 445 kts | 275° |
| 2026-04-30 14:55 | 41.24561 | 36.81894 | 34066 ft | 445 kts | 275° |
| 2026-04-30 14:56 | 41.25773 | 36.65584 | 34063 ft | 444 kts | 275° |
| 2026-04-30 14:57 | 41.26998 | 36.53464 | 34066 ft | 445 kts | 283° |
| 2026-04-30 14:58 | 41.30920 | 36.37801 | 34054 ft | 446 kts | 287° |
| 2026-04-30 14:58 | 41.33904 | 36.26076 | 34043 ft | 446 kts | 286° |
| 2026-04-30 15:00 | 41.38851 | 36.06476 | 34040 ft | 448 kts | 286° |
| 2026-04-30 15:01 | 41.42776 | 35.90799 | 34036 ft | 448 kts | 286° |
| 2026-04-30 15:01 | 41.45709 | 35.79018 | 34034 ft | 447 kts | 286° |
| 2026-04-30 15:02 | 41.47668 | 35.71111 | 34036 ft | 447 kts | 286° |
| 2026-04-30 15:03 | 41.52502 | 35.51491 | 34045 ft | 445 kts | 286° |
| 2026-04-30 15:04 | 41.57281 | 35.31921 | 34047 ft | 445 kts | 285° |
| 2026-04-30 15:06 | 41.62032 | 35.12301 | 34043 ft | 444 kts | 285° |
| 2026-04-30 15:07 | 41.65809 | 34.96586 | 34045 ft | 445 kts | 285° |
| 2026-04-30 15:08 | 41.69550 | 34.80903 | 34044 ft | 444 kts | 285° |
| 2026-04-30 15:09 | 41.74197 | 34.61254 | 34049 ft | 446 kts | 285° |
| 2026-04-30 15:10 | 41.77907 | 34.45484 | 34055 ft | 446 kts | 285° |
| 2026-04-30 15:11 | 41.83435 | 34.21799 | 34046 ft | 443 kts | 285° |
| 2026-04-30 15:13 | 41.87981 | 34.02108 | 34050 ft | 443 kts | 284° |
| 2026-04-30 15:14 | 41.94252 | 33.74583 | 34072 ft | 442 kts | 285° |
| 2026-04-30 15:17 | 42.01255 | 33.38953 | 34051 ft | 438 kts | 283° |
| 2026-04-30 15:19 | 42.07226 | 33.07330 | 34046 ft | 435 kts | 282° |
| 2026-04-30 17:39 | 50.45159 | 10.21944 | 36371 ft | 487 kts | 310° |
| 2026-04-30 17:42 | 50.64610 | 9.78602 | 36376 ft | 489 kts | 310° |
| 2026-04-30 17:43 | 50.74382 | 9.56864 | 36374 ft | 486 kts | 314° |
| 2026-04-30 17:44 | 50.87221 | 9.32354 | 36379 ft | 487 kts | 313° |
| 2026-04-30 17:47 | 51.06399 | 8.95087 | 36361 ft | 480 kts | 313° |
| 2026-04-30 17:48 | 51.21241 | 8.65833 | 36375 ft | 491 kts | 313° |
| 2026-04-30 17:50 | 51.39249 | 8.34247 | 36358 ft | 484 kts | 323° |
| 2026-04-30 17:52 | 51.54676 | 8.13429 | 36350 ft | 484 kts | 322° |
| 2026-04-30 17:54 | 51.77694 | 7.81903 | 35753 ft | 485 kts | 322° |
| 2026-04-30 17:55 | 51.87765 | 7.67321 | 34289 ft | 491 kts | 313° |
| 2026-04-30 17:56 | 51.96089 | 7.49688 | 32779 ft | 496 kts | 310° |
| 2026-04-30 17:57 | 52.02549 | 7.36638 | 31633 ft | 498 kts | 311° |
| 2026-04-30 17:58 | 52.09055 | 7.23406 | 30477 ft | 502 kts | 310° |
| 2026-04-30 17:59 | 52.17756 | 7.05498 | 28953 ft | 505 kts | 310° |
| 2026-04-30 18:00 | 52.23246 | 6.84636 | 26734 ft | 498 kts | 287° |
| 2026-04-30 18:00 | 52.26344 | 6.68445 | 25061 ft | 488 kts | 290° |
| 2026-04-30 18:01 | 52.28696 | 6.58045 | 24015 ft | 483 kts | 292° |
| 2026-04-30 18:02 | 52.32227 | 6.42632 | 22483 ft | 476 kts | 291° |
| 2026-04-30 18:02 | 52.35645 | 6.27457 | 20997 ft | 469 kts | 290° |
| 2026-04-30 18:03 | 52.38936 | 6.12567 | 19663 ft | 459 kts | 287° |
| 2026-04-30 18:04 | 52.39599 | 5.97121 | 19432 ft | 459 kts | 258° |
| 2026-04-30 18:05 | 52.36682 | 5.76931 | 18387 ft | 457 kts | 258° |
| 2026-04-30 18:06 | 52.34566 | 5.56731 | 16380 ft | 440 kts | 257° |
| 2026-04-30 18:07 | 52.32042 | 5.37506 | 14457 ft | 421 kts | 256° |
| 2026-04-30 18:08 | 52.30200 | 5.23586 | 12915 ft | 402 kts | 252° |
| 2026-04-30 18:09 | 52.26728 | 5.07347 | 11175 ft | 340 kts | 248° |
| 2026-04-30 18:10 | 52.23261 | 4.94101 | 9237 ft | 307 kts | 238° |
| 2026-04-30 18:11 | 52.19286 | 4.82103 | 6996 ft | 304 kts | 238° |
| 2026-04-30 18:11 | 52.16361 | 4.73178 | 5151 ft | 290 kts | 238° |
| 2026-04-30 18:12 | 52.13681 | 4.64751 | 4446 ft | 274 kts | 238° |
| 2026-04-30 18:13 | 52.12012 | 4.59405 | 4262 ft | 251 kts | 238° |
| 2026-04-30 18:13 | 52.10054 | 4.52628 | 3733 ft | 261 kts | 258° |
| 2026-04-30 18:14 | 52.11999 | 4.47045 | 3373 ft | 255 kts | 332° |
| 2026-04-30 18:15 | 52.16705 | 4.46135 | 2851 ft | 224 kts | 33° |
| 2026-04-30 18:15 | 52.20212 | 4.50094 | 2406 ft | 159 kts | 74° |
| 2026-04-30 18:16 | 52.21157 | 4.53137 | 2300 ft | 146 kts | 70° |
| 2026-04-30 18:16 | 52.22183 | 4.56110 | 2312 ft | 151 kts | 69° |
| 2026-04-30 18:17 | 52.22726 | 4.57602 | 2263 ft | 152 kts | 68° |
| 2026-04-30 18:17 | 52.23270 | 4.59067 | 2083 ft | 150 kts | 68° |
| 2026-04-30 18:17 | 52.24372 | 4.61972 | 1677 ft | 149 kts | 67° |
| 2026-04-30 18:18 | 52.24924 | 4.63431 | 1476 ft | 151 kts | 66° |
| 2026-04-30 18:18 | 52.25481 | 4.64887 | 1278 ft | 150 kts | 65° |
| 2026-04-30 18:18 | 52.26052 | 4.66375 | 1071 ft | 149 kts | 64° |
| 2026-04-30 18:18 | 52.26610 | 4.67805 | 870 ft | 148 kts | 63° |
| 2026-04-30 18:19 | 52.27161 | 4.69219 | 668 ft | 147 kts | 62° |
| 2026-04-30 18:19 | 52.27721 | 4.70655 | 484 ft | 152 kts | 61° |
| 2026-04-30 18:19 | 52.28275 | 4.72096 | 299 ft | 151 kts | 62° |
| 2026-04-30 18:19 | 52.28870 | 4.73581 | 50 ft | 157 kts | 61° |
| 2026-04-30 18:20 | 52.29420 | 4.75042 | 6 ft | 137 kts | 60° |
| 2026-04-30 18:20 | 52.29843 | 4.76157 | 6 ft | 97 kts | 57° |
| 2026-04-30 18:20 | 52.30146 | 4.76942 | 5 ft | 67 kts | 58° |
| 2026-04-30 18:20 | 52.30312 | 4.77382 | 5 ft | 28 kts | 71° |
| 2026-04-30 18:21 | 52.30245 | 4.77543 | 5 ft | 16 kts | 182° |
| 2026-04-30 18:21 | 52.30165 | 4.77482 | 5 ft | 9 kts | 229° |
| 2026-04-30 18:21 | 52.30134 | 4.77423 | 5 ft | 3 kts | 229° |
| 2026-04-30 18:21 | 52.30128 | 4.77412 | 5 ft | 0 kts | 231° |
| 2026-04-30 18:22 | 52.30129 | 4.77414 | 5 ft | 0 kts | 231° |
| 2026-04-30 18:22 | 52.30078 | 4.77294 | 5 ft | 11 kts | 237° |
| 2026-04-30 18:22 | 52.30028 | 4.77164 | 5 ft | 15 kts | 239° |
| 2026-04-30 18:23 | 52.29966 | 4.77003 | 5 ft | 17 kts | 238° |
| 2026-04-30 18:23 | 52.29886 | 4.76851 | 5 ft | 18 kts | 221° |
| 2026-04-30 18:23 | 52.29810 | 4.76686 | 5 ft | 18 kts | 237° |
| 2026-04-30 18:23 | 52.29739 | 4.76503 | 5 ft | 19 kts | 238° |
| 2026-04-30 18:24 | 52.29612 | 4.76170 | 5 ft | 9 kts | 232° |
| 2026-04-30 18:24 | 52.29559 | 4.76162 | 5 ft | 9 kts | 141° |
| 2026-04-30 18:24 | 52.29543 | 4.76183 | 5 ft | 0 kts | 146° |
| 2026-04-30 18:25 | 52.29525 | 4.76201 | 5 ft | 4 kts | 149° |
| 2026-04-30 18:25 | 52.29519 | 4.76206 | 5 ft | 0 kts | 149° |